sensor_id;sensor_type;location;lat;lon;timestamp;pressure;altitude;pressure_sealevel;temperature;humidity
56719;BME280;42597;40.636;0.278;2023-12-29T00:01:32;97926.09;;;13.20;47.74
56719;BME280;42597;40.636;0.278;2023-12-29T00:03:58;97933.59;;;12.99;48.25
56719;BME280;42597;40.636;0.278;2023-12-29T00:06:23;97929.53;;;12.93;48.44
56719;BME280;42597;40.636;0.278;2023-12-29T00:08:49;97919.56;;;12.97;48.50
56719;BME280;42597;40.636;0.278;2023-12-29T00:11:19;97922.16;;;13.05;48.38
56719;BME280;42597;40.636;0.278;2023-12-29T00:13:45;97916.50;;;12.98;48.48
56719;BME280;42597;40.636;0.278;2023-12-29T00:16:10;97925.28;;;12.55;48.16
56719;BME280;42597;40.636;0.278;2023-12-29T00:18:39;97928.69;;;11.73;38.14
56719;BME280;42597;40.636;0.278;2023-12-29T00:21:05;97925.44;;;11.14;39.81
56719;BME280;42597;40.636;0.278;2023-12-29T00:23:31;97926.47;;;11.75;48.38
56719;BME280;42597;40.636;0.278;2023-12-29T00:25:56;97919.75;;;12.51;48.86
56719;BME280;42597;40.636;0.278;2023-12-29T00:28:22;97915.22;;;12.31;48.85
56719;BME280;42597;40.636;0.278;2023-12-29T00:30:48;97905.38;;;12.63;48.65
56719;BME280;42597;40.636;0.278;2023-12-29T00:33:13;97898.47;;;12.66;48.44
56719;BME280;42597;40.636;0.278;2023-12-29T00:35:39;97899.03;;;12.83;48.51
56719;BME280;42597;40.636;0.278;2023-12-29T00:38:05;97890.19;;;12.99;47.81
56719;BME280;42597;40.636;0.278;2023-12-29T00:40:32;97890.91;;;12.71;48.93
56719;BME280;42597;40.636;0.278;2023-12-29T00:42:58;97881.88;;;12.79;48.63
56719;BME280;42597;40.636;0.278;2023-12-29T00:45:23;97872.41;;;12.49;48.60
56719;BME280;42597;40.636;0.278;2023-12-29T00:47:50;97862.78;;;12.64;48.67
56719;BME280;42597;40.636;0.278;2023-12-29T00:50:17;97866.19;;;13.13;47.52
56719;BME280;42597;40.636;0.278;2023-12-29T00:52:42;97869.88;;;13.21;47.34
56719;BME280;42597;40.636;0.278;2023-12-29T00:55:08;97865.91;;;13.18;46.52
56719;BME280;42597;40.636;0.278;2023-12-29T00:57:34;97871.34;;;13.18;46.80
56719;BME280;42597;40.636;0.278;2023-12-29T01:00:00;97881.56;;;13.09;42.89
56719;BME280;42597;40.636;0.278;2023-12-29T01:02:26;97878.25;;;10.81;38.03
56719;BME280;42597;40.636;0.278;2023-12-29T01:04:52;97863.22;;;10.93;44.22
56719;BME280;42597;40.636;0.278;2023-12-29T01:07:17;97868.25;;;13.04;47.46
56719;BME280;42597;40.636;0.278;2023-12-29T01:09:43;97871.16;;;13.11;45.87
56719;BME280;42597;40.636;0.278;2023-12-29T01:12:08;97870.81;;;12.72;46.84
56719;BME280;42597;40.636;0.278;2023-12-29T01:14:34;97867.22;;;13.08;46.68
56719;BME280;42597;40.636;0.278;2023-12-29T01:17:00;97866.22;;;13.01;46.92
56719;BME280;42597;40.636;0.278;2023-12-29T01:19:26;97867.78;;;13.02;46.04
56719;BME280;42597;40.636;0.278;2023-12-29T01:21:51;97868.53;;;12.87;45.14
56719;BME280;42597;40.636;0.278;2023-12-29T01:24:17;97863.13;;;12.50;47.11
56719;BME280;42597;40.636;0.278;2023-12-29T01:26:42;97855.44;;;12.64;46.38
56719;BME280;42597;40.636;0.278;2023-12-29T01:29:08;97850.44;;;12.91;47.02
56719;BME280;42597;40.636;0.278;2023-12-29T01:31:33;97856.03;;;12.98;46.77
56719;BME280;42597;40.636;0.278;2023-12-29T01:33:59;97850.47;;;12.78;48.05
56719;BME280;42597;40.636;0.278;2023-12-29T01:36:25;97843.91;;;12.79;47.20
56719;BME280;42597;40.636;0.278;2023-12-29T01:38:50;97841.50;;;12.78;47.78
56719;BME280;42597;40.636;0.278;2023-12-29T01:41:19;97836.59;;;12.68;45.69
56719;BME280;42597;40.636;0.278;2023-12-29T01:44:18;97852.66;;;12.36;44.04
56719;BME280;42597;40.636;0.278;2023-12-29T01:46:45;97847.22;;;12.60;41.03
56719;BME280;42597;40.636;0.278;2023-12-29T01:49:15;97835.81;;;13.07;46.31
56719;BME280;42597;40.636;0.278;2023-12-29T01:51:42;97834.97;;;13.19;45.60
56719;BME280;42597;40.636;0.278;2023-12-29T01:54:10;97836.78;;;13.27;45.77
56719;BME280;42597;40.636;0.278;2023-12-29T01:56:36;97841.06;;;13.16;46.04
56719;BME280;42597;40.636;0.278;2023-12-29T01:59:03;97839.72;;;13.10;46.21
56719;BME280;42597;40.636;0.278;2023-12-29T02:01:29;97840.88;;;13.09;46.44
56719;BME280;42597;40.636;0.278;2023-12-29T02:03:56;97845.50;;;13.08;46.42
56719;BME280;42597;40.636;0.278;2023-12-29T02:06:21;97856.16;;;13.01;46.57
56719;BME280;42597;40.636;0.278;2023-12-29T02:08:47;97848.78;;;12.62;45.14
56719;BME280;42597;40.636;0.278;2023-12-29T02:11:13;97862.56;;;11.50;42.14
56719;BME280;42597;40.636;0.278;2023-12-29T02:13:39;97858.19;;;11.24;40.48
56719;BME280;42597;40.636;0.278;2023-12-29T02:16:14;97858.19;;;12.40;46.40
56719;BME280;42597;40.636;0.278;2023-12-29T02:18:44;97858.22;;;12.92;46.17
56719;BME280;42597;40.636;0.278;2023-12-29T02:21:11;97861.69;;;13.05;46.16
56719;BME280;42597;40.636;0.278;2023-12-29T02:23:36;97861.31;;;11.93;36.64
56719;BME280;42597;40.636;0.278;2023-12-29T02:26:07;97862.13;;;10.43;35.23
56719;BME280;42597;40.636;0.278;2023-12-29T02:28:39;97858.47;;;9.54;35.72
56719;BME280;42597;40.636;0.278;2023-12-29T02:31:16;97846.56;;;11.69;47.19
56719;BME280;42597;40.636;0.278;2023-12-29T02:33:45;97834.44;;;12.61;45.66
56719;BME280;42597;40.636;0.278;2023-12-29T02:36:13;97830.19;;;12.35;46.24
56719;BME280;42597;40.636;0.278;2023-12-29T02:38:40;97829.16;;;12.40;47.22
56719;BME280;42597;40.636;0.278;2023-12-29T02:41:06;97834.19;;;12.66;46.63
56719;BME280;42597;40.636;0.278;2023-12-29T02:43:32;97836.09;;;12.78;46.24
56719;BME280;42597;40.636;0.278;2023-12-29T02:45:58;97835.56;;;12.72;46.90
56719;BME280;42597;40.636;0.278;2023-12-29T02:48:24;97840.16;;;12.84;46.64
56719;BME280;42597;40.636;0.278;2023-12-29T02:50:49;97842.34;;;12.78;47.09
56719;BME280;42597;40.636;0.278;2023-12-29T02:53:15;97848.19;;;12.80;46.59
56719;BME280;42597;40.636;0.278;2023-12-29T02:55:40;97852.69;;;12.89;46.17
56719;BME280;42597;40.636;0.278;2023-12-29T02:58:07;97853.84;;;12.75;46.04
56719;BME280;42597;40.636;0.278;2023-12-29T03:00:32;97836.75;;;12.22;46.60
56719;BME280;42597;40.636;0.278;2023-12-29T03:02:58;97827.88;;;12.62;47.57
56719;BME280;42597;40.636;0.278;2023-12-29T03:05:24;97832.66;;;12.93;46.12
56719;BME280;42597;40.636;0.278;2023-12-29T03:07:49;97844.50;;;13.01;45.72
56719;BME280;42597;40.636;0.278;2023-12-29T03:10:15;97851.50;;;13.02;46.15
56719;BME280;42597;40.636;0.278;2023-12-29T03:12:41;97858.53;;;11.68;39.13
56719;BME280;42597;40.636;0.278;2023-12-29T03:15:06;97853.69;;;12.19;47.74
56719;BME280;42597;40.636;0.278;2023-12-29T03:17:32;97847.28;;;12.76;46.51
56719;BME280;42597;40.636;0.278;2023-12-29T03:19:58;97830.78;;;12.81;46.25
56719;BME280;42597;40.636;0.278;2023-12-29T03:22:24;97823.16;;;12.59;46.78
56719;BME280;42597;40.636;0.278;2023-12-29T03:24:49;97814.94;;;12.43;47.52
56719;BME280;42597;40.636;0.278;2023-12-29T03:27:15;97807.34;;;12.61;47.43
56719;BME280;42597;40.636;0.278;2023-12-29T03:29:40;97808.69;;;12.67;46.58
56719;BME280;42597;40.636;0.278;2023-12-29T03:32:06;97817.53;;;12.92;46.40
56719;BME280;42597;40.636;0.278;2023-12-29T03:34:32;97829.72;;;12.98;46.37
56719;BME280;42597;40.636;0.278;2023-12-29T03:36:58;97831.00;;;12.89;46.11
56719;BME280;42597;40.636;0.278;2023-12-29T03:39:24;97827.44;;;12.60;42.98
56719;BME280;42597;40.636;0.278;2023-12-29T03:41:49;97801.88;;;12.73;45.53
56719;BME280;42597;40.636;0.278;2023-12-29T03:44:15;97807.09;;;13.06;44.83
56719;BME280;42597;40.636;0.278;2023-12-29T03:46:40;97813.31;;;13.07;45.30
56719;BME280;42597;40.636;0.278;2023-12-29T03:49:06;97817.38;;;13.01;45.10
56719;BME280;42597;40.636;0.278;2023-12-29T03:51:31;97821.53;;;12.82;45.80
56719;BME280;42597;40.636;0.278;2023-12-29T03:53:57;97819.34;;;12.88;45.41
56719;BME280;42597;40.636;0.278;2023-12-29T03:56:24;97814.03;;;12.92;46.06
56719;BME280;42597;40.636;0.278;2023-12-29T03:58:49;97806.56;;;12.48;42.67
56719;BME280;42597;40.636;0.278;2023-12-29T04:01:16;97803.88;;;12.89;45.86
56719;BME280;42597;40.636;0.278;2023-12-29T04:03:42;97794.69;;;12.93;45.61
56719;BME280;42597;40.636;0.278;2023-12-29T04:06:08;97803.97;;;12.92;45.71
56719;BME280;42597;40.636;0.278;2023-12-29T04:08:34;97804.56;;;12.85;45.68
56719;BME280;42597;40.636;0.278;2023-12-29T04:11:01;97799.53;;;13.00;45.35
56719;BME280;42597;40.636;0.278;2023-12-29T04:13:27;97797.03;;;13.07;45.18
56719;BME280;42597;40.636;0.278;2023-12-29T04:15:52;97787.25;;;12.50;43.46
56719;BME280;42597;40.636;0.278;2023-12-29T04:18:20;97775.81;;;12.04;45.93
56719;BME280;42597;40.636;0.278;2023-12-29T04:20:46;97767.28;;;12.82;45.86
56719;BME280;42597;40.636;0.278;2023-12-29T04:23:12;97771.63;;;12.71;45.81
56719;BME280;42597;40.636;0.278;2023-12-29T04:25:37;97759.69;;;12.88;43.15
56719;BME280;42597;40.636;0.278;2023-12-29T04:28:04;97749.63;;;12.89;45.82
56719;BME280;42597;40.636;0.278;2023-12-29T04:30:29;97758.22;;;12.91;45.97
56719;BME280;42597;40.636;0.278;2023-12-29T04:32:55;97744.94;;;13.01;45.19
56719;BME280;42597;40.636;0.278;2023-12-29T04:35:21;97745.22;;;13.12;44.91
56719;BME280;42597;40.636;0.278;2023-12-29T04:37:47;97743.88;;;13.06;45.21
56719;BME280;42597;40.636;0.278;2023-12-29T04:40:13;97746.75;;;12.97;45.50
56719;BME280;42597;40.636;0.278;2023-12-29T04:42:38;97753.69;;;12.95;45.50
56719;BME280;42597;40.636;0.278;2023-12-29T04:45:04;97774.56;;;13.22;45.08
56719;BME280;42597;40.636;0.278;2023-12-29T04:47:30;97767.19;;;13.07;44.51
56719;BME280;42597;40.636;0.278;2023-12-29T04:49:56;97758.03;;;12.83;45.42
56719;BME280;42597;40.636;0.278;2023-12-29T04:52:22;97764.91;;;12.81;45.64
56719;BME280;42597;40.636;0.278;2023-12-29T04:54:47;97769.06;;;10.95;37.38
56719;BME280;42597;40.636;0.278;2023-12-29T04:57:13;97765.25;;;10.33;42.18
56719;BME280;42597;40.636;0.278;2023-12-29T04:59:39;97766.31;;;10.41;38.05
56719;BME280;42597;40.636;0.278;2023-12-29T05:02:04;97761.75;;;10.03;38.75
56719;BME280;42597;40.636;0.278;2023-12-29T05:04:30;97763.97;;;10.09;40.36
56719;BME280;42597;40.636;0.278;2023-12-29T05:06:55;97770.66;;;10.54;39.14
56719;BME280;42597;40.636;0.278;2023-12-29T05:09:21;97768.63;;;9.62;37.79
56719;BME280;42597;40.636;0.278;2023-12-29T05:11:47;97755.59;;;10.23;35.52
56719;BME280;42597;40.636;0.278;2023-12-29T05:14:13;97752.34;;;10.38;38.59
56719;BME280;42597;40.636;0.278;2023-12-29T05:16:39;97743.13;;;9.80;36.46
56719;BME280;42597;40.636;0.278;2023-12-29T05:19:04;97755.47;;;10.20;37.69
56719;BME280;42597;40.636;0.278;2023-12-29T05:21:30;97754.06;;;9.84;35.76
56719;BME280;42597;40.636;0.278;2023-12-29T05:23:56;97741.13;;;10.49;37.64
56719;BME280;42597;40.636;0.278;2023-12-29T05:26:22;97729.22;;;10.50;37.75
56719;BME280;42597;40.636;0.278;2023-12-29T05:28:47;97735.84;;;11.64;45.29
56719;BME280;42597;40.636;0.278;2023-12-29T05:31:13;97729.28;;;11.53;43.60
56719;BME280;42597;40.636;0.278;2023-12-29T05:33:38;97733.88;;;10.41;35.09
56719;BME280;42597;40.636;0.278;2023-12-29T05:36:08;97735.56;;;10.24;36.22
56719;BME280;42597;40.636;0.278;2023-12-29T05:38:34;97751.88;;;10.07;35.82
56719;BME280;42597;40.636;0.278;2023-12-29T05:41:00;97738.94;;;9.92;36.28
56719;BME280;42597;40.636;0.278;2023-12-29T05:43:31;97736.13;;;10.59;39.01
56719;BME280;42597;40.636;0.278;2023-12-29T05:45:57;97729.03;;;9.36;36.39
56719;BME280;42597;40.636;0.278;2023-12-29T05:48:23;97719.84;;;9.37;38.90
56719;BME280;42597;40.636;0.278;2023-12-29T05:50:52;97740.47;;;10.52;46.17
56719;BME280;42597;40.636;0.278;2023-12-29T05:53:18;97745.41;;;9.99;36.55
56719;BME280;42597;40.636;0.278;2023-12-29T05:55:44;97730.78;;;10.00;36.55
56719;BME280;42597;40.636;0.278;2023-12-29T05:58:10;97727.13;;;9.46;34.84
56719;BME280;42597;40.636;0.278;2023-12-29T06:00:38;97725.03;;;10.73;43.97
56719;BME280;42597;40.636;0.278;2023-12-29T06:03:05;97739.41;;;10.65;37.15
56719;BME280;42597;40.636;0.278;2023-12-29T06:05:32;97723.78;;;9.78;34.50
56719;BME280;42597;40.636;0.278;2023-12-29T06:07:57;97728.59;;;10.65;45.40
56719;BME280;42597;40.636;0.278;2023-12-29T06:10:23;97747.75;;;11.39;43.78
56719;BME280;42597;40.636;0.278;2023-12-29T06:12:49;97733.31;;;9.46;35.21
56719;BME280;42597;40.636;0.278;2023-12-29T06:15:14;97736.06;;;9.97;43.46
56719;BME280;42597;40.636;0.278;2023-12-29T06:17:40;97735.81;;;11.52;40.74
56719;BME280;42597;40.636;0.278;2023-12-29T06:20:07;97734.09;;;9.47;35.92
56719;BME280;42597;40.636;0.278;2023-12-29T06:22:33;97738.31;;;9.95;39.73
56719;BME280;42597;40.636;0.278;2023-12-29T06:24:59;97754.84;;;10.44;40.43
56719;BME280;42597;40.636;0.278;2023-12-29T06:27:25;97756.19;;;9.78;37.76
56719;BME280;42597;40.636;0.278;2023-12-29T06:29:51;97760.44;;;10.09;38.80
56719;BME280;42597;40.636;0.278;2023-12-29T06:32:17;97762.88;;;10.31;40.55
56719;BME280;42597;40.636;0.278;2023-12-29T06:34:42;97772.13;;;10.51;38.73
56719;BME280;42597;40.636;0.278;2023-12-29T06:37:08;97754.16;;;10.88;44.19
56719;BME280;42597;40.636;0.278;2023-12-29T06:39:34;97758.28;;;11.65;45.71
56719;BME280;42597;40.636;0.278;2023-12-29T06:41:59;97767.00;;;11.25;41.49
56719;BME280;42597;40.636;0.278;2023-12-29T06:44:25;97774.91;;;10.13;36.20
56719;BME280;42597;40.636;0.278;2023-12-29T06:46:51;97774.75;;;10.39;40.33
56719;BME280;42597;40.636;0.278;2023-12-29T06:49:16;97769.59;;;10.67;43.55
56719;BME280;42597;40.636;0.278;2023-12-29T06:51:42;97765.50;;;11.15;46.10
56719;BME280;42597;40.636;0.278;2023-12-29T06:54:07;97773.03;;;11.43;43.19
56719;BME280;42597;40.636;0.278;2023-12-29T06:56:33;97773.44;;;10.66;36.41
56719;BME280;42597;40.636;0.278;2023-12-29T06:58:58;97770.13;;;10.10;33.72
56719;BME280;42597;40.636;0.278;2023-12-29T07:01:24;97771.69;;;10.41;37.98
56719;BME280;42597;40.636;0.278;2023-12-29T07:03:50;97772.38;;;10.37;39.73
56719;BME280;42597;40.636;0.278;2023-12-29T07:06:15;97758.53;;;11.14;45.17
56719;BME280;42597;40.636;0.278;2023-12-29T07:08:41;97756.88;;;11.22;42.50
56719;BME280;42597;40.636;0.278;2023-12-29T07:11:10;97766.38;;;11.07;44.64
56719;BME280;42597;40.636;0.278;2023-12-29T07:13:37;97755.50;;;11.28;45.60
56719;BME280;42597;40.636;0.278;2023-12-29T07:16:03;97765.84;;;11.59;44.97
56719;BME280;42597;40.636;0.278;2023-12-29T07:18:29;97774.72;;;11.47;43.52
56719;BME280;42597;40.636;0.278;2023-12-29T07:20:54;97774.09;;;11.29;43.58
56719;BME280;42597;40.636;0.278;2023-12-29T07:23:20;97761.19;;;11.02;43.57
56719;BME280;42597;40.636;0.278;2023-12-29T07:25:46;97769.59;;;11.33;46.32
56719;BME280;42597;40.636;0.278;2023-12-29T07:28:12;97765.13;;;10.71;39.56
56719;BME280;42597;40.636;0.278;2023-12-29T07:30:38;97758.66;;;11.18;42.92
56719;BME280;42597;40.636;0.278;2023-12-29T07:33:03;97754.75;;;11.52;40.60
56719;BME280;42597;40.636;0.278;2023-12-29T07:35:29;97747.78;;;11.05;42.50
56719;BME280;42597;40.636;0.278;2023-12-29T07:37:55;97748.03;;;11.70;44.54
56719;BME280;42597;40.636;0.278;2023-12-29T07:40:20;97736.44;;;11.12;37.95
56719;BME280;42597;40.636;0.278;2023-12-29T07:42:46;97738.69;;;10.56;43.01
56719;BME280;42597;40.636;0.278;2023-12-29T07:45:15;97752.47;;;10.42;41.33
56719;BME280;42597;40.636;0.278;2023-12-29T07:47:41;97752.19;;;11.68;45.30
56719;BME280;42597;40.636;0.278;2023-12-29T07:50:07;97760.00;;;11.24;38.26
56719;BME280;42597;40.636;0.278;2023-12-29T07:52:32;97765.78;;;10.68;41.81
56719;BME280;42597;40.636;0.278;2023-12-29T07:54:58;97770.78;;;12.43;45.05
56719;BME280;42597;40.636;0.278;2023-12-29T07:57:23;97778.50;;;11.22;41.42
56719;BME280;42597;40.636;0.278;2023-12-29T07:59:49;97793.22;;;9.99;33.92
56719;BME280;42597;40.636;0.278;2023-12-29T08:02:15;97795.94;;;9.52;33.96
56719;BME280;42597;40.636;0.278;2023-12-29T08:04:41;97801.75;;;10.09;36.18
56719;BME280;42597;40.636;0.278;2023-12-29T08:07:07;97807.31;;;10.43;37.94
56719;BME280;42597;40.636;0.278;2023-12-29T08:09:33;97811.34;;;9.98;35.68
56719;BME280;42597;40.636;0.278;2023-12-29T08:11:58;97813.97;;;10.07;37.06
56719;BME280;42597;40.636;0.278;2023-12-29T08:14:25;97828.66;;;9.88;36.08
56719;BME280;42597;40.636;0.278;2023-12-29T08:16:51;97830.84;;;9.57;35.96
56719;BME280;42597;40.636;0.278;2023-12-29T08:19:17;97828.97;;;9.96;38.70
56719;BME280;42597;40.636;0.278;2023-12-29T08:21:42;97846.38;;;10.07;38.30
56719;BME280;42597;40.636;0.278;2023-12-29T08:24:08;97849.81;;;9.86;38.15
56719;BME280;42597;40.636;0.278;2023-12-29T08:26:33;97863.94;;;10.22;40.17
56719;BME280;42597;40.636;0.278;2023-12-29T08:28:59;97867.94;;;10.16;36.74
56719;BME280;42597;40.636;0.278;2023-12-29T08:31:25;97851.41;;;11.97;46.01
56719;BME280;42597;40.636;0.278;2023-12-29T08:33:51;97857.50;;;11.60;43.02
56719;BME280;42597;40.636;0.278;2023-12-29T08:36:21;97859.91;;;10.66;40.27
56719;BME280;42597;40.636;0.278;2023-12-29T08:38:46;97868.50;;;11.10;41.49
56719;BME280;42597;40.636;0.278;2023-12-29T08:41:15;97868.34;;;11.27;42.05
56719;BME280;42597;40.636;0.278;2023-12-29T08:43:40;97860.25;;;10.85;37.14
56719;BME280;42597;40.636;0.278;2023-12-29T08:46:06;97860.72;;;10.87;39.73
56719;BME280;42597;40.636;0.278;2023-12-29T08:48:32;97856.50;;;10.99;40.55
56719;BME280;42597;40.636;0.278;2023-12-29T08:50:57;97856.28;;;11.04;41.71
56719;BME280;42597;40.636;0.278;2023-12-29T08:53:23;97854.38;;;10.62;35.08
56719;BME280;42597;40.636;0.278;2023-12-29T08:55:49;97855.38;;;10.79;40.87
56719;BME280;42597;40.636;0.278;2023-12-29T08:58:14;97844.38;;;11.17;44.84
56719;BME280;42597;40.636;0.278;2023-12-29T09:00:40;97850.38;;;11.89;44.22
56719;BME280;42597;40.636;0.278;2023-12-29T09:03:05;97849.69;;;11.47;40.79
56719;BME280;42597;40.636;0.278;2023-12-29T09:05:31;97845.66;;;11.65;41.91
56719;BME280;42597;40.636;0.278;2023-12-29T09:07:56;97854.81;;;11.73;46.29
56719;BME280;42597;40.636;0.278;2023-12-29T09:10:22;97866.41;;;11.61;44.12
56719;BME280;42597;40.636;0.278;2023-12-29T09:12:48;97874.97;;;11.51;45.26
56719;BME280;42597;40.636;0.278;2023-12-29T09:15:14;97872.25;;;11.51;45.32
56719;BME280;42597;40.636;0.278;2023-12-29T09:17:40;97877.06;;;11.12;41.13
56719;BME280;42597;40.636;0.278;2023-12-29T09:20:06;97869.03;;;10.82;41.47
56719;BME280;42597;40.636;0.278;2023-12-29T09:22:33;97862.50;;;10.83;44.62
56719;BME280;42597;40.636;0.278;2023-12-29T09:24:59;97867.03;;;10.92;45.19
56719;BME280;42597;40.636;0.278;2023-12-29T09:27:24;97863.31;;;11.38;44.54
56719;BME280;42597;40.636;0.278;2023-12-29T09:29:50;97857.00;;;11.34;42.47
56719;BME280;42597;40.636;0.278;2023-12-29T09:32:16;97861.72;;;11.37;39.26
56719;BME280;42597;40.636;0.278;2023-12-29T09:34:41;97859.44;;;11.60;43.38
56719;BME280;42597;40.636;0.278;2023-12-29T09:37:08;97855.50;;;11.36;39.28
56719;BME280;42597;40.636;0.278;2023-12-29T09:39:33;97863.38;;;12.08;44.61
56719;BME280;42597;40.636;0.278;2023-12-29T09:41:59;97860.91;;;12.15;41.43
56719;BME280;42597;40.636;0.278;2023-12-29T09:44:27;97860.44;;;12.25;43.72
56719;BME280;42597;40.636;0.278;2023-12-29T09:47:00;97860.88;;;11.57;41.86
56719;BME280;42597;40.636;0.278;2023-12-29T09:49:27;97859.88;;;11.50;41.20
56719;BME280;42597;40.636;0.278;2023-12-29T09:51:57;97861.19;;;11.44;42.32
56719;BME280;42597;40.636;0.278;2023-12-29T09:54:24;97857.59;;;11.52;44.37
56719;BME280;42597;40.636;0.278;2023-12-29T09:56:50;97860.00;;;11.32;41.35
56719;BME280;42597;40.636;0.278;2023-12-29T09:59:16;97856.44;;;10.86;37.23
56719;BME280;42597;40.636;0.278;2023-12-29T10:01:44;97861.13;;;10.48;37.86
56719;BME280;42597;40.636;0.278;2023-12-29T10:04:11;97866.09;;;10.46;37.71
56719;BME280;42597;40.636;0.278;2023-12-29T10:06:38;97860.47;;;10.21;37.44
56719;BME280;42597;40.636;0.278;2023-12-29T10:09:11;97868.72;;;10.16;36.96
56719;BME280;42597;40.636;0.278;2023-12-29T10:11:37;97859.56;;;10.47;36.93
56719;BME280;42597;40.636;0.278;2023-12-29T10:14:22;97860.75;;;10.58;36.96
56719;BME280;42597;40.636;0.278;2023-12-29T10:16:53;97868.72;;;10.54;37.31
56719;BME280;42597;40.636;0.278;2023-12-29T10:19:40;97870.38;;;10.68;40.44
56719;BME280;42597;40.636;0.278;2023-12-29T10:22:21;97857.94;;;10.75;38.49
56719;BME280;42597;40.636;0.278;2023-12-29T10:24:50;97867.16;;;10.95;39.32
56719;BME280;42597;40.636;0.278;2023-12-29T10:27:16;97871.44;;;10.75;37.77
56719;BME280;42597;40.636;0.278;2023-12-29T10:29:41;97866.72;;;10.43;37.42
56719;BME280;42597;40.636;0.278;2023-12-29T10:32:07;97873.63;;;10.31;38.00
56719;BME280;42597;40.636;0.278;2023-12-29T10:34:34;97865.88;;;10.51;37.71
56719;BME280;42597;40.636;0.278;2023-12-29T10:37:01;97856.16;;;10.79;37.94
56719;BME280;42597;40.636;0.278;2023-12-29T10:39:29;97851.59;;;11.13;43.64
56719;BME280;42597;40.636;0.278;2023-12-29T10:42:20;97852.56;;;11.63;44.64
56719;BME280;42597;40.636;0.278;2023-12-29T10:44:46;97848.03;;;11.54;43.48
56719;BME280;42597;40.636;0.278;2023-12-29T10:47:12;97846.75;;;10.85;38.22
56719;BME280;42597;40.636;0.278;2023-12-29T10:49:40;97838.00;;;11.22;42.29
56719;BME280;42597;40.636;0.278;2023-12-29T10:52:15;97828.66;;;10.98;38.24
56719;BME280;42597;40.636;0.278;2023-12-29T10:54:42;97827.41;;;10.96;37.15
56719;BME280;42597;40.636;0.278;2023-12-29T10:57:09;97821.78;;;11.01;40.69
56719;BME280;42597;40.636;0.278;2023-12-29T10:59:35;97821.47;;;11.35;42.58
56719;BME280;42597;40.636;0.278;2023-12-29T11:02:01;97811.56;;;11.06;36.42
56719;BME280;42597;40.636;0.278;2023-12-29T11:04:28;97809.41;;;11.33;40.51
56719;BME280;42597;40.636;0.278;2023-12-29T11:06:54;97809.09;;;11.34;37.50
56719;BME280;42597;40.636;0.278;2023-12-29T11:09:31;97803.97;;;11.66;43.93
56719;BME280;42597;40.636;0.278;2023-12-29T11:12:00;97813.44;;;11.72;41.66
56719;BME280;42597;40.636;0.278;2023-12-29T11:14:26;97812.34;;;11.40;39.19
56719;BME280;42597;40.636;0.278;2023-12-29T11:16:54;97807.47;;;11.33;39.53
56719;BME280;42597;40.636;0.278;2023-12-29T11:19:21;97800.94;;;11.22;39.48
56719;BME280;42597;40.636;0.278;2023-12-29T11:21:51;97800.94;;;11.22;38.15
56719;BME280;42597;40.636;0.278;2023-12-29T11:24:18;97808.28;;;11.34;37.70
56719;BME280;42597;40.636;0.278;2023-12-29T11:26:44;97799.03;;;11.35;37.86
56719;BME280;42597;40.636;0.278;2023-12-29T11:29:11;97813.13;;;11.41;39.02
56719;BME280;42597;40.636;0.278;2023-12-29T11:31:38;97811.81;;;11.47;41.87
56719;BME280;42597;40.636;0.278;2023-12-29T11:34:24;97811.06;;;11.25;36.67
56719;BME280;42597;40.636;0.278;2023-12-29T11:37:18;97818.56;;;11.41;38.41
56719;BME280;42597;40.636;0.278;2023-12-29T11:40:19;97807.69;;;11.28;36.47
56719;BME280;42597;40.636;0.278;2023-12-29T11:42:48;97800.09;;;11.43;37.32
56719;BME280;42597;40.636;0.278;2023-12-29T11:45:31;97792.91;;;11.59;38.44
56719;BME280;42597;40.636;0.278;2023-12-29T11:48:01;97793.78;;;11.51;40.12
56719;BME280;42597;40.636;0.278;2023-12-29T11:50:34;97800.09;;;11.55;37.72
56719;BME280;42597;40.636;0.278;2023-12-29T11:53:00;97801.53;;;11.40;37.91
56719;BME280;42597;40.636;0.278;2023-12-29T11:55:30;97797.63;;;11.50;38.37
56719;BME280;42597;40.636;0.278;2023-12-29T11:57:57;97801.78;;;11.47;37.59
56719;BME280;42597;40.636;0.278;2023-12-29T12:00:44;97797.47;;;11.34;37.55
56719;BME280;42597;40.636;0.278;2023-12-29T12:03:28;97794.41;;;11.35;37.13
56719;BME280;42597;40.636;0.278;2023-12-29T12:05:57;97785.16;;;11.36;37.25
56719;BME280;42597;40.636;0.278;2023-12-29T12:08:33;97779.31;;;11.34;36.85
56719;BME280;42597;40.636;0.278;2023-12-29T12:13:56;97759.06;;;11.65;37.85
56719;BME280;42597;40.636;0.278;2023-12-29T12:16:47;97761.63;;;11.49;37.36
56719;BME280;42597;40.636;0.278;2023-12-29T12:19:13;97759.03;;;11.53;37.65
56719;BME280;42597;40.636;0.278;2023-12-29T12:21:39;97752.06;;;11.52;37.69
56719;BME280;42597;40.636;0.278;2023-12-29T12:24:05;97746.41;;;11.57;37.82
56719;BME280;42597;40.636;0.278;2023-12-29T12:26:32;97741.13;;;11.60;37.68
56719;BME280;42597;40.636;0.278;2023-12-29T12:28:58;97735.59;;;11.57;37.82
56719;BME280;42597;40.636;0.278;2023-12-29T12:31:24;97727.47;;;11.69;38.26
56719;BME280;42597;40.636;0.278;2023-12-29T12:33:54;97708.75;;;11.64;37.91
56719;BME280;42597;40.636;0.278;2023-12-29T12:36:21;97711.94;;;11.66;38.18
56719;BME280;42597;40.636;0.278;2023-12-29T12:38:54;97705.81;;;11.81;38.71
56719;BME280;42597;40.636;0.278;2023-12-29T12:41:23;97710.13;;;11.82;38.53
56719;BME280;42597;40.636;0.278;2023-12-29T12:44:06;97707.63;;;12.02;40.88
56719;BME280;42597;40.636;0.278;2023-12-29T12:46:35;97707.63;;;11.77;38.40
56719;BME280;42597;40.636;0.278;2023-12-29T12:49:05;97704.25;;;11.93;39.54
56719;BME280;42597;40.636;0.278;2023-12-29T12:51:32;97702.44;;;11.97;41.65
56719;BME280;42597;40.636;0.278;2023-12-29T12:53:59;97701.44;;;12.01;39.83
56719;BME280;42597;40.636;0.278;2023-12-29T12:56:25;97703.38;;;11.89;37.86
56719;BME280;42597;40.636;0.278;2023-12-29T12:58:55;97703.38;;;11.89;37.33
56719;BME280;42597;40.636;0.278;2023-12-29T13:01:21;97690.47;;;11.98;38.27
56719;BME280;42597;40.636;0.278;2023-12-29T13:03:47;97688.25;;;12.00;38.12